sensor_id;sensor_type;location;lat;lon;timestamp;P1;durP1;ratioP1;P2;durP2;ratioP2
6842;SDS011;3460;52.028;8.916;2023-12-22T03:35:38;15.63;;;2.77;;
6842;SDS011;3460;52.028;8.916;2023-12-22T03:38:05;17.13;;;2.50;;
6842;SDS011;3460;52.028;8.916;2023-12-22T03:40:31;12.50;;;2.37;;
6842;SDS011;3460;52.028;8.916;2023-12-22T03:42:58;19.07;;;3.40;;
6842;SDS011;3460;52.028;8.916;2023-12-22T03:45:25;10.27;;;2.10;;
6842;SDS011;3460;52.028;8.916;2023-12-22T03:47:52;16.13;;;3.30;;
6842;SDS011;3460;52.028;8.916;2023-12-22T03:50:19;13.13;;;2.80;;
6842;SDS011;3460;52.028;8.916;2023-12-22T03:52:47;13.97;;;2.70;;
6842;SDS011;3460;52.028;8.916;2023-12-22T03:55:14;16.13;;;3.10;;
6842;SDS011;3460;52.028;8.916;2023-12-22T03:57:41;15.83;;;2.77;;
6842;SDS011;3460;52.028;8.916;2023-12-22T04:00:08;19.10;;;2.93;;
6842;SDS011;3460;52.028;8.916;2023-12-22T04:02:35;13.80;;;2.90;;
6842;SDS011;3460;52.028;8.916;2023-12-22T04:05:02;12.23;;;2.40;;
6842;SDS011;3460;52.028;8.916;2023-12-22T04:07:29;18.90;;;2.80;;
6842;SDS011;3460;52.028;8.916;2023-12-22T04:09:58;11.13;;;2.50;;
6842;SDS011;3460;52.028;8.916;2023-12-22T04:12:24;22.87;;;3.40;;
6842;SDS011;3460;52.028;8.916;2023-12-22T04:14:51;17.47;;;3.07;;
6842;SDS011;3460;52.028;8.916;2023-12-22T04:17:18;10.17;;;3.03;;
6842;SDS011;3460;52.028;8.916;2023-12-22T04:19:45;11.53;;;2.53;;
6842;SDS011;3460;52.028;8.916;2023-12-22T04:22:12;11.27;;;2.97;;
6842;SDS011;3460;52.028;8.916;2023-12-22T04:24:39;21.77;;;2.90;;
6842;SDS011;3460;52.028;8.916;2023-12-22T04:27:07;12.83;;;3.13;;
6842;SDS011;3460;52.028;8.916;2023-12-22T04:29:34;12.60;;;3.03;;
6842;SDS011;3460;52.028;8.916;2023-12-22T04:32:00;19.43;;;2.40;;
6842;SDS011;3460;52.028;8.916;2023-12-22T04:34:27;15.50;;;3.33;;
6842;SDS011;3460;52.028;8.916;2023-12-22T04:36:54;11.60;;;2.50;;
6842;SDS011;3460;52.028;8.916;2023-12-22T04:39:21;17.37;;;2.87;;
6842;SDS011;3460;52.028;8.916;2023-12-22T04:41:48;18.83;;;2.80;;
6842;SDS011;3460;52.028;8.916;2023-12-22T04:44:16;10.57;;;2.00;;
6842;SDS011;3460;52.028;8.916;2023-12-22T04:46:42;13.63;;;2.77;;
6842;SDS011;3460;52.028;8.916;2023-12-22T04:49:09;12.40;;;2.60;;
6842;SDS011;3460;52.028;8.916;2023-12-22T04:51:36;17.23;;;2.50;;
6842;SDS011;3460;52.028;8.916;2023-12-22T04:54:03;13.77;;;3.10;;
6842;SDS011;3460;52.028;8.916;2023-12-22T04:56:29;18.23;;;3.20;;
6842;SDS011;3460;52.028;8.916;2023-12-22T04:58:57;14.70;;;2.50;;
6842;SDS011;3460;52.028;8.916;2023-12-22T05:01:25;15.87;;;2.73;;
6842;SDS011;3460;52.028;8.916;2023-12-22T05:03:52;8.73;;;2.03;;
6842;SDS011;3460;52.028;8.916;2023-12-22T05:06:19;12.43;;;2.23;;
6842;SDS011;3460;52.028;8.916;2023-12-22T05:08:46;12.53;;;1.80;;
6842;SDS011;3460;52.028;8.916;2023-12-22T05:11:13;7.77;;;2.10;;
6842;SDS011;3460;52.028;8.916;2023-12-22T05:13:40;9.20;;;2.17;;
6842;SDS011;3460;52.028;8.916;2023-12-22T05:16:08;9.10;;;1.60;;
6842;SDS011;3460;52.028;8.916;2023-12-22T05:18:36;10.97;;;2.37;;
6842;SDS011;3460;52.028;8.916;2023-12-22T05:21:03;8.80;;;1.80;;
6842;SDS011;3460;52.028;8.916;2023-12-22T05:23:30;13.00;;;2.00;;
6842;SDS011;3460;52.028;8.916;2023-12-22T05:25:57;9.43;;;1.50;;
6842;SDS011;3460;52.028;8.916;2023-12-22T05:28:24;10.50;;;1.90;;
6842;SDS011;3460;52.028;8.916;2023-12-22T05:30:51;8.70;;;2.40;;
6842;SDS011;3460;52.028;8.916;2023-12-22T05:33:18;5.23;;;1.40;;
6842;SDS011;3460;52.028;8.916;2023-12-22T05:35:46;7.40;;;2.80;;
6842;SDS011;3460;52.028;8.916;2023-12-22T05:38:13;7.47;;;1.50;;
6842;SDS011;3460;52.028;8.916;2023-12-22T05:40:42;11.60;;;1.80;;
6842;SDS011;3460;52.028;8.916;2023-12-22T05:43:08;3.93;;;1.33;;
6842;SDS011;3460;52.028;8.916;2023-12-22T05:45:35;11.63;;;1.80;;
6842;SDS011;3460;52.028;8.916;2023-12-22T05:48:02;5.13;;;1.43;;
6842;SDS011;3460;52.028;8.916;2023-12-22T05:50:30;9.00;;;1.63;;
6842;SDS011;3460;52.028;8.916;2023-12-22T05:52:58;7.57;;;1.70;;
6842;SDS011;3460;52.028;8.916;2023-12-22T05:55:24;8.23;;;1.70;;
6842;SDS011;3460;52.028;8.916;2023-12-22T05:57:51;5.60;;;1.20;;
6842;SDS011;3460;52.028;8.916;2023-12-22T06:00:18;8.17;;;1.40;;
6842;SDS011;3460;52.028;8.916;2023-12-22T06:02:45;7.67;;;1.50;;
6842;SDS011;3460;52.028;8.916;2023-12-22T06:05:12;8.30;;;1.67;;
6842;SDS011;3460;52.028;8.916;2023-12-22T06:07:39;8.27;;;1.40;;
6842;SDS011;3460;52.028;8.916;2023-12-22T06:10:08;13.67;;;1.77;;
6842;SDS011;3460;52.028;8.916;2023-12-22T06:12:35;7.57;;;1.40;;
6842;SDS011;3460;52.028;8.916;2023-12-22T06:15:02;7.93;;;1.40;;
6842;SDS011;3460;52.028;8.916;2023-12-22T06:17:30;5.27;;;1.20;;
6842;SDS011;3460;52.028;8.916;2023-12-22T06:19:56;4.37;;;1.57;;
6842;SDS011;3460;52.028;8.916;2023-12-22T06:22:23;6.70;;;1.90;;
6842;SDS011;3460;52.028;8.916;2023-12-22T06:24:50;4.40;;;1.40;;
6842;SDS011;3460;52.028;8.916;2023-12-22T06:27:18;6.53;;;1.50;;
6842;SDS011;3460;52.028;8.916;2023-12-22T06:29:45;6.50;;;1.50;;
6842;SDS011;3460;52.028;8.916;2023-12-22T06:32:12;10.67;;;1.60;;
6842;SDS011;3460;52.028;8.916;2023-12-22T06:34:38;9.33;;;1.90;;
6842;SDS011;3460;52.028;8.916;2023-12-22T06:37:05;6.30;;;1.90;;
6842;SDS011;3460;52.028;8.916;2023-12-22T06:39:33;10.20;;;1.60;;
6842;SDS011;3460;52.028;8.916;2023-12-22T06:41:59;6.93;;;1.70;;
6842;SDS011;3460;52.028;8.916;2023-12-22T06:44:27;8.77;;;1.70;;
6842;SDS011;3460;52.028;8.916;2023-12-22T06:46:56;10.20;;;1.83;;
6842;SDS011;3460;52.028;8.916;2023-12-22T06:49:23;13.27;;;2.87;;
6842;SDS011;3460;52.028;8.916;2023-12-22T06:51:50;12.87;;;2.67;;
6842;SDS011;3460;52.028;8.916;2023-12-22T06:54:17;6.30;;;1.70;;
6842;SDS011;3460;52.028;8.916;2023-12-22T06:56:43;6.83;;;1.77;;
6842;SDS011;3460;52.028;8.916;2023-12-22T06:59:10;8.17;;;1.60;;
6842;SDS011;3460;52.028;8.916;2023-12-22T07:01:39;13.93;;;2.60;;
6842;SDS011;3460;52.028;8.916;2023-12-22T07:04:06;8.67;;;2.17;;
6842;SDS011;3460;52.028;8.916;2023-12-22T07:06:33;12.50;;;1.90;;
6842;SDS011;3460;52.028;8.916;2023-12-22T07:11:58;12.40;;;2.03;;
6842;SDS011;3460;52.028;8.916;2023-12-22T07:14:25;7.83;;;1.90;;
6842;SDS011;3460;52.028;8.916;2023-12-22T07:16:53;5.57;;;2.03;;
6842;SDS011;3460;52.028;8.916;2023-12-22T07:19:20;6.70;;;2.00;;
6842;SDS011;3460;52.028;8.916;2023-12-22T07:21:47;9.30;;;2.27;;
6842;SDS011;3460;52.028;8.916;2023-12-22T07:24:14;12.07;;;1.80;;
6842;SDS011;3460;52.028;8.916;2023-12-22T07:26:41;9.93;;;1.77;;
6842;SDS011;3460;52.028;8.916;2023-12-22T07:29:09;14.60;;;2.20;;
6842;SDS011;3460;52.028;8.916;2023-12-22T07:31:36;9.97;;;2.43;;
6842;SDS011;3460;52.028;8.916;2023-12-22T07:34:05;9.03;;;2.20;;
6842;SDS011;3460;52.028;8.916;2023-12-22T07:36:31;11.47;;;2.20;;
6842;SDS011;3460;52.028;8.916;2023-12-22T07:38:58;10.80;;;2.40;;
6842;SDS011;3460;52.028;8.916;2023-12-22T07:41:25;13.97;;;2.40;;
6842;SDS011;3460;52.028;8.916;2023-12-22T07:43:52;11.30;;;2.30;;
6842;SDS011;3460;52.028;8.916;2023-12-22T07:46:19;10.37;;;1.90;;
6842;SDS011;3460;52.028;8.916;2023-12-22T07:48:47;18.10;;;2.57;;
6842;SDS011;3460;52.028;8.916;2023-12-22T07:51:15;11.67;;;2.20;;
6842;SDS011;3460;52.028;8.916;2023-12-22T07:53:42;14.13;;;2.80;;
6842;SDS011;3460;52.028;8.916;2023-12-22T07:56:09;6.70;;;1.87;;
6842;SDS011;3460;52.028;8.916;2023-12-22T07:58:36;11.03;;;2.60;;
6842;SDS011;3460;52.028;8.916;2023-12-22T08:01:03;10.13;;;2.40;;
6842;SDS011;3460;52.028;8.916;2023-12-22T08:03:31;16.13;;;2.83;;
6842;SDS011;3460;52.028;8.916;2023-12-22T08:05:58;11.47;;;3.23;;
6842;SDS011;3460;52.028;8.916;2023-12-22T08:08:26;13.23;;;2.30;;
6842;SDS011;3460;52.028;8.916;2023-12-22T08:10:53;14.47;;;2.33;;
6842;SDS011;3460;52.028;8.916;2023-12-22T08:13:20;13.03;;;2.37;;
6842;SDS011;3460;52.028;8.916;2023-12-22T08:15:47;6.23;;;2.00;;
6842;SDS011;3460;52.028;8.916;2023-12-22T08:18:14;12.87;;;3.43;;
6842;SDS011;3460;52.028;8.916;2023-12-22T08:20:40;18.53;;;3.53;;
6842;SDS011;3460;52.028;8.916;2023-12-22T08:23:08;14.50;;;2.67;;
6842;SDS011;3460;52.028;8.916;2023-12-22T08:25:38;12.70;;;2.37;;
6842;SDS011;3460;52.028;8.916;2023-12-22T08:28:06;10.67;;;2.33;;
6842;SDS011;3460;52.028;8.916;2023-12-22T08:30:33;12.93;;;2.30;;
6842;SDS011;3460;52.028;8.916;2023-12-22T08:33:00;14.30;;;3.37;;
6842;SDS011;3460;52.028;8.916;2023-12-22T08:35:27;13.23;;;2.53;;
6842;SDS011;3460;52.028;8.916;2023-12-22T08:37:54;10.60;;;2.33;;
6842;SDS011;3460;52.028;8.916;2023-12-22T08:40:21;10.60;;;2.40;;
6842;SDS011;3460;52.028;8.916;2023-12-22T08:42:52;11.10;;;2.67;;
6842;SDS011;3460;52.028;8.916;2023-12-22T08:45:24;9.10;;;2.03;;
6842;SDS011;3460;52.028;8.916;2023-12-22T08:47:53;15.10;;;2.97;;
6842;SDS011;3460;52.028;8.916;2023-12-22T08:50:20;10.67;;;2.60;;
6842;SDS011;3460;52.028;8.916;2023-12-22T08:52:47;12.17;;;2.40;;
6842;SDS011;3460;52.028;8.916;2023-12-22T08:55:14;12.47;;;2.40;;
6842;SDS011;3460;52.028;8.916;2023-12-22T08:57:41;12.00;;;3.00;;
6842;SDS011;3460;52.028;8.916;2023-12-22T09:00:10;10.73;;;2.77;;
6842;SDS011;3460;52.028;8.916;2023-12-22T09:02:38;12.73;;;2.60;;
6842;SDS011;3460;52.028;8.916;2023-12-22T09:05:05;13.27;;;2.47;;
6842;SDS011;3460;52.028;8.916;2023-12-22T09:07:32;14.23;;;2.33;;
6842;SDS011;3460;52.028;8.916;2023-12-22T09:09:59;11.53;;;2.40;;
6842;SDS011;3460;52.028;8.916;2023-12-22T09:12:26;15.90;;;3.00;;
6842;SDS011;3460;52.028;8.916;2023-12-22T09:14:53;13.37;;;2.93;;
6842;SDS011;3460;52.028;8.916;2023-12-22T09:17:21;13.43;;;2.47;;
6842;SDS011;3460;52.028;8.916;2023-12-22T09:19:48;16.57;;;3.17;;
6842;SDS011;3460;52.028;8.916;2023-12-22T09:22:15;14.30;;;2.53;;
6842;SDS011;3460;52.028;8.916;2023-12-22T09:24:42;9.37;;;2.50;;
6842;SDS011;3460;52.028;8.916;2023-12-22T09:27:09;11.07;;;2.37;;
6842;SDS011;3460;52.028;8.916;2023-12-22T09:29:35;11.20;;;2.77;;
6842;SDS011;3460;52.028;8.916;2023-12-22T09:32:02;12.60;;;2.87;;
6842;SDS011;3460;52.028;8.916;2023-12-22T09:34:31;8.37;;;3.23;;
6842;SDS011;3460;52.028;8.916;2023-12-22T09:36:57;15.63;;;2.60;;
6842;SDS011;3460;52.028;8.916;2023-12-22T09:39:24;12.20;;;2.20;;
6842;SDS011;3460;52.028;8.916;2023-12-22T09:41:54;16.33;;;2.33;;
6842;SDS011;3460;52.028;8.916;2023-12-22T09:44:21;11.53;;;3.03;;
6842;SDS011;3460;52.028;8.916;2023-12-22T09:46:48;9.80;;;2.07;;
6842;SDS011;3460;52.028;8.916;2023-12-22T09:49:16;12.60;;;2.67;;
6842;SDS011;3460;52.028;8.916;2023-12-22T09:51:46;9.30;;;2.40;;
6842;SDS011;3460;52.028;8.916;2023-12-22T09:54:15;9.47;;;2.23;;
6842;SDS011;3460;52.028;8.916;2023-12-22T09:56:43;13.03;;;2.60;;
6842;SDS011;3460;52.028;8.916;2023-12-22T09:59:12;10.47;;;2.40;;
6842;SDS011;3460;52.028;8.916;2023-12-22T10:01:40;12.77;;;2.67;;
6842;SDS011;3460;52.028;8.916;2023-12-22T10:04:10;5.77;;;2.17;;
6842;SDS011;3460;52.028;8.916;2023-12-22T10:06:38;9.23;;;2.67;;
6842;SDS011;3460;52.028;8.916;2023-12-22T10:09:06;12.10;;;2.20;;
6842;SDS011;3460;52.028;8.916;2023-12-22T10:11:34;6.10;;;1.87;;
6842;SDS011;3460;52.028;8.916;2023-12-22T10:14:02;8.80;;;2.17;;
6842;SDS011;3460;52.028;8.916;2023-12-22T10:16:30;8.50;;;1.93;;
6842;SDS011;3460;52.028;8.916;2023-12-22T10:18:58;6.93;;;1.60;;
6842;SDS011;3460;52.028;8.916;2023-12-22T10:21:26;9.00;;;2.30;;
6842;SDS011;3460;52.028;8.916;2023-12-22T10:23:55;8.00;;;3.10;;
6842;SDS011;3460;52.028;8.916;2023-12-22T10:26:24;3.63;;;1.53;;
6842;SDS011;3460;52.028;8.916;2023-12-22T10:28:50;6.47;;;2.00;;
6842;SDS011;3460;52.028;8.916;2023-12-22T10:31:17;7.90;;;1.73;;
6842;SDS011;3460;52.028;8.916;2023-12-22T10:33:44;8.27;;;1.90;;
6842;SDS011;3460;52.028;8.916;2023-12-22T10:36:11;8.10;;;1.93;;
6842;SDS011;3460;52.028;8.916;2023-12-22T10:38:38;3.50;;;1.63;;
6842;SDS011;3460;52.028;8.916;2023-12-22T10:41:05;6.30;;;1.43;;
6842;SDS011;3460;52.028;8.916;2023-12-22T10:43:38;7.07;;;2.00;;
6842;SDS011;3460;52.028;8.916;2023-12-22T10:46:04;7.37;;;1.60;;
6842;SDS011;3460;52.028;8.916;2023-12-22T10:48:33;6.93;;;1.97;;
6842;SDS011;3460;52.028;8.916;2023-12-22T10:51:00;11.20;;;2.97;;
6842;SDS011;3460;52.028;8.916;2023-12-22T10:53:26;8.50;;;1.63;;
6842;SDS011;3460;52.028;8.916;2023-12-22T10:55:53;8.47;;;1.50;;
6842;SDS011;3460;52.028;8.916;2023-12-22T10:58:20;5.90;;;2.03;;
6842;SDS011;3460;52.028;8.916;2023-12-22T11:00:49;3.27;;;1.50;;
6842;SDS011;3460;52.028;8.916;2023-12-22T11:03:17;8.50;;;1.87;;
6842;SDS011;3460;52.028;8.916;2023-12-22T11:05:48;5.40;;;1.70;;
6842;SDS011;3460;52.028;8.916;2023-12-22T11:08:16;3.67;;;1.23;;
6842;SDS011;3460;52.028;8.916;2023-12-22T11:10:45;7.93;;;1.70;;
6842;SDS011;3460;52.028;8.916;2023-12-22T11:13:19;4.30;;;1.50;;
6842;SDS011;3460;52.028;8.916;2023-12-22T11:15:49;5.53;;;1.60;;
6842;SDS011;3460;52.028;8.916;2023-12-22T11:18:17;6.13;;;1.60;;
6842;SDS011;3460;52.028;8.916;2023-12-22T11:20:45;6.60;;;1.80;;
6842;SDS011;3460;52.028;8.916;2023-12-22T11:23:14;6.80;;;2.07;;
6842;SDS011;3460;52.028;8.916;2023-12-22T11:25:43;6.93;;;1.83;;
6842;SDS011;3460;52.028;8.916;2023-12-22T11:28:14;4.83;;;1.70;;
6842;SDS011;3460;52.028;8.916;2023-12-22T11:30:46;4.43;;;1.73;;
6842;SDS011;3460;52.028;8.916;2023-12-22T11:33:17;4.80;;;1.40;;
6842;SDS011;3460;52.028;8.916;2023-12-22T11:35:44;8.00;;;1.40;;
6842;SDS011;3460;52.028;8.916;2023-12-22T11:38:12;4.47;;;1.40;;
6842;SDS011;3460;52.028;8.916;2023-12-22T11:40:39;4.27;;;1.47;;
6842;SDS011;3460;52.028;8.916;2023-12-22T11:43:06;3.90;;;1.30;;
6842;SDS011;3460;52.028;8.916;2023-12-22T11:45:34;5.63;;;1.90;;
6842;SDS011;3460;52.028;8.916;2023-12-22T11:48:06;6.53;;;1.90;;
6842;SDS011;3460;52.028;8.916;2023-12-22T11:50:34;6.80;;;1.40;;
6842;SDS011;3460;52.028;8.916;2023-12-22T11:53:18;5.23;;;1.30;;
6842;SDS011;3460;52.028;8.916;2023-12-22T11:56:01;6.17;;;1.57;;
6842;SDS011;3460;52.028;8.916;2023-12-22T11:58:34;4.27;;;1.80;;
6842;SDS011;3460;52.028;8.916;2023-12-22T12:01:01;22.40;;;11.53;;
6842;SDS011;3460;52.028;8.916;2023-12-22T12:03:31;12.47;;;5.03;;
6842;SDS011;3460;52.028;8.916;2023-12-22T12:08:59;5.73;;;1.93;;
6842;SDS011;3460;52.028;8.916;2023-12-22T12:14:29;7.20;;;1.63;;
6842;SDS011;3460;52.028;8.916;2023-12-22T12:16:59;5.17;;;1.50;;
6842;SDS011;3460;52.028;8.916;2023-12-22T12:19:31;6.13;;;1.67;;
6842;SDS011;3460;52.028;8.916;2023-12-22T12:22:00;7.20;;;1.80;;
6842;SDS011;3460;52.028;8.916;2023-12-22T12:24:27;5.53;;;1.50;;
6842;SDS011;3460;52.028;8.916;2023-12-22T12:26:54;3.23;;;1.87;;
6842;SDS011;3460;52.028;8.916;2023-12-22T12:29:21;5.47;;;1.90;;
6842;SDS011;3460;52.028;8.916;2023-12-22T12:31:48;7.23;;;1.87;;
6842;SDS011;3460;52.028;8.916;2023-12-22T12:34:15;3.97;;;1.30;;
6842;SDS011;3460;52.028;8.916;2023-12-22T12:36:47;3.87;;;1.50;;
6842;SDS011;3460;52.028;8.916;2023-12-22T12:39:14;22.97;;;10.40;;
6842;SDS011;3460;52.028;8.916;2023-12-22T12:41:42;4.43;;;1.70;;
6842;SDS011;3460;52.028;8.916;2023-12-22T12:44:10;8.17;;;1.90;;
6842;SDS011;3460;52.028;8.916;2023-12-22T12:46:37;3.40;;;1.37;;
6842;SDS011;3460;52.028;8.916;2023-12-22T12:49:07;3.20;;;1.47;;
6842;SDS011;3460;52.028;8.916;2023-12-22T12:51:37;4.97;;;1.80;;
6842;SDS011;3460;52.028;8.916;2023-12-22T12:54:09;6.87;;;2.73;;
6842;SDS011;3460;52.028;8.916;2023-12-22T12:56:37;4.20;;;1.77;;
6842;SDS011;3460;52.028;8.916;2023-12-22T12:59:06;6.73;;;1.40;;
6842;SDS011;3460;52.028;8.916;2023-12-22T13:01:37;3.33;;;1.03;;
6842;SDS011;3460;52.028;8.916;2023-12-22T13:04:04;2.13;;;1.07;;
6842;SDS011;3460;52.028;8.916;2023-12-22T13:06:31;4.53;;;1.33;;
6842;SDS011;3460;52.028;8.916;2023-12-22T13:08:58;3.40;;;1.20;;
6842;SDS011;3460;52.028;8.916;2023-12-22T13:11:27;1.30;;;1.00;;
6842;SDS011;3460;52.028;8.916;2023-12-22T13:13:57;4.30;;;1.27;;
6842;SDS011;3460;52.028;8.916;2023-12-22T13:16:24;2.90;;;1.07;;
6842;SDS011;3460;52.028;8.916;2023-12-22T13:18:54;2.13;;;0.80;;
6842;SDS011;3460;52.028;8.916;2023-12-22T13:21:22;2.20;;;0.90;;
6842;SDS011;3460;52.028;8.916;2023-12-22T13:26:35;3.20;;;0.90;;
6842;SDS011;3460;52.028;8.916;2023-12-22T13:29:02;4.00;;;1.30;;
6842;SDS011;3460;52.028;8.916;2023-12-22T13:31:29;2.77;;;0.97;;
6842;SDS011;3460;52.028;8.916;2023-12-22T13:33:57;3.13;;;1.17;;
6842;SDS011;3460;52.028;8.916;2023-12-22T13:36:24;2.50;;;1.17;;
6842;SDS011;3460;52.028;8.916;2023-12-22T13:38:50;2.20;;;1.10;;
6842;SDS011;3460;52.028;8.916;2023-12-22T13:41:18;2.80;;;1.30;;
6842;SDS011;3460;52.028;8.916;2023-12-22T13:43:47;1.97;;;1.00;;
6842;SDS011;3460;52.028;8.916;2023-12-22T13:46:14;3.27;;;1.30;;
6842;SDS011;3460;52.028;8.916;2023-12-22T13:48:41;1.97;;;1.00;;
6842;SDS011;3460;52.028;8.916;2023-12-22T13:51:08;2.20;;;0.90;;
6842;SDS011;3460;52.028;8.916;2023-12-22T13:53:35;2.37;;;1.10;;
6842;SDS011;3460;52.028;8.916;2023-12-22T13:56:12;4.10;;;1.40;;
6842;SDS011;3460;52.028;8.916;2023-12-22T13:58:43;4.30;;;1.43;;
6842;SDS011;3460;52.028;8.916;2023-12-22T14:01:13;3.80;;;1.20;;
6842;SDS011;3460;52.028;8.916;2023-12-22T14:03:41;1.80;;;1.10;;
6842;SDS011;3460;52.028;8.916;2023-12-22T14:06:09;2.10;;;1.00;;
6842;SDS011;3460;52.028;8.916;2023-12-22T14:08:37;1.80;;;1.20;;
6842;SDS011;3460;52.028;8.916;2023-12-22T14:11:06;1.27;;;0.90;;
6842;SDS011;3460;52.028;8.916;2023-12-22T14:13:33;2.30;;;1.13;;
6842;SDS011;3460;52.028;8.916;2023-12-22T14:16:04;2.73;;;1.20;;
6842;SDS011;3460;52.028;8.916;2023-12-22T14:18:32;2.93;;;1.30;;
6842;SDS011;3460;52.028;8.916;2023-12-22T14:20:59;1.30;;;0.87;;
6842;SDS011;3460;52.028;8.916;2023-12-22T14:23:26;5.20;;;1.50;;
6842;SDS011;3460;52.028;8.916;2023-12-22T14:25:53;2.40;;;0.80;;
6842;SDS011;3460;52.028;8.916;2023-12-22T14:28:20;2.53;;;1.07;;
6842;SDS011;3460;52.028;8.916;2023-12-22T14:30:47;3.47;;;1.30;;
6842;SDS011;3460;52.028;8.916;2023-12-22T14:33:14;1.30;;;1.00;;
6842;SDS011;3460;52.028;8.916;2023-12-22T14:35:42;3.20;;;1.10;;
6842;SDS011;3460;52.028;8.916;2023-12-22T14:38:09;1.97;;;1.03;;
6842;SDS011;3460;52.028;8.916;2023-12-22T14:40:36;1.00;;;0.90;;
6842;SDS011;3460;52.028;8.916;2023-12-22T14:43:03;1.20;;;1.00;;
6842;SDS011;3460;52.028;8.916;2023-12-22T14:45:29;1.23;;;1.00;;
6842;SDS011;3460;52.028;8.916;2023-12-22T14:47:56;1.03;;;0.80;;
6842;SDS011;3460;52.028;8.916;2023-12-22T14:50:23;1.57;;;0.90;;
6842;SDS011;3460;52.028;8.916;2023-12-22T14:52:51;0.97;;;0.83;;
6842;SDS011;3460;52.028;8.916;2023-12-22T14:55:18;3.40;;;1.00;;
6842;SDS011;3460;52.028;8.916;2023-12-22T14:57:45;1.30;;;0.90;;
6842;SDS011;3460;52.028;8.916;2023-12-22T15:00:13;2.13;;;1.13;;
6842;SDS011;3460;52.028;8.916;2023-12-22T15:02:41;2.37;;;1.20;;
6842;SDS011;3460;52.028;8.916;2023-12-22T15:05:08;1.10;;;1.00;;
6842;SDS011;3460;52.028;8.916;2023-12-22T15:07:35;2.30;;;1.17;;
6842;SDS011;3460;52.028;8.916;2023-12-22T15:10:03;1.70;;;1.00;;
6842;SDS011;3460;52.028;8.916;2023-12-22T15:12:31;1.80;;;0.90;;
6842;SDS011;3460;52.028;8.916;2023-12-22T15:15:01;2.03;;;0.90;;
6842;SDS011;3460;52.028;8.916;2023-12-22T15:17:29;2.27;;;0.90;;
6842;SDS011;3460;52.028;8.916;2023-12-22T15:19:56;1.37;;;1.00;;
6842;SDS011;3460;52.028;8.916;2023-12-22T15:22:23;1.43;;;0.90;;
6842;SDS011;3460;52.028;8.916;2023-12-22T15:24:49;1.87;;;1.00;;
6842;SDS011;3460;52.028;8.916;2023-12-22T15:27:18;2.87;;;1.30;;
6842;SDS011;3460;52.028;8.916;2023-12-22T15:29:45;2.17;;;1.10;;
6842;SDS011;3460;52.028;8.916;2023-12-22T15:32:12;11.43;;;6.77;;
6842;SDS011;3460;52.028;8.916;2023-12-22T15:34:40;2.20;;;1.20;;
6842;SDS011;3460;52.028;8.916;2023-12-22T15:37:08;1.80;;;1.10;;
6842;SDS011;3460;52.028;8.916;2023-12-22T15:39:35;2.47;;;1.17;;
6842;SDS011;3460;52.028;8.916;2023-12-22T15:42:02;2.40;;;1.20;;
6842;SDS011;3460;52.028;8.916;2023-12-22T15:44:30;2.13;;;1.03;;
6842;SDS011;3460;52.028;8.916;2023-12-22T15:46:57;2.87;;;1.20;;
6842;SDS011;3460;52.028;8.916;2023-12-22T15:49:24;2.07;;;1.10;;
6842;SDS011;3460;52.028;8.916;2023-12-22T15:51:52;1.73;;;1.13;;
6842;SDS011;3460;52.028;8.916;2023-12-22T15:54:21;2.27;;;1.00;;
6842;SDS011;3460;52.028;8.916;2023-12-22T15:56:47;3.93;;;1.37;;
6842;SDS011;3460;52.028;8.916;2023-12-22T15:59:14;3.73;;;1.80;;
6842;SDS011;3460;52.028;8.916;2023-12-22T16:01:45;2.73;;;1.40;;
6842;SDS011;3460;52.028;8.916;2023-12-22T16:04:12;4.70;;;1.60;;
6842;SDS011;3460;52.028;8.916;2023-12-22T16:06:39;5.13;;;1.60;;
6842;SDS011;3460;52.028;8.916;2023-12-22T16:09:06;2.83;;;1.47;;
6842;SDS011;3460;52.028;8.916;2023-12-22T16:11:32;3.10;;;1.27;;
6842;SDS011;3460;52.028;8.916;2023-12-22T16:13:59;2.40;;;1.10;;
6842;SDS011;3460;52.028;8.916;2023-12-22T16:16:26;3.27;;;1.00;;
6842;SDS011;3460;52.028;8.916;2023-12-22T16:18:54;0.87;;;0.77;;
6842;SDS011;3460;52.028;8.916;2023-12-22T16:21:21;5.33;;;3.33;;
6842;SDS011;3460;52.028;8.916;2023-12-22T16:23:48;1.20;;;0.90;;
6842;SDS011;3460;52.028;8.916;2023-12-22T16:26:18;1.47;;;1.13;;
6842;SDS011;3460;52.028;8.916;2023-12-22T16:28:46;2.13;;;1.10;;
6842;SDS011;3460;52.028;8.916;2023-12-22T16:31:13;2.63;;;1.20;;
6842;SDS011;3460;52.028;8.916;2023-12-22T16:33:39;1.30;;;1.03;;
6842;SDS011;3460;52.028;8.916;2023-12-22T16:36:11;2.97;;;1.30;;
6842;SDS011;3460;52.028;8.916;2023-12-22T16:38:38;3.70;;;1.50;;
6842;SDS011;3460;52.028;8.916;2023-12-22T16:41:06;1.90;;;1.07;;
6842;SDS011;3460;52.028;8.916;2023-12-22T16:43:34;4.07;;;1.40;;
6842;SDS011;3460;52.028;8.916;2023-12-22T16:46:01;1.63;;;1.40;;
6842;SDS011;3460;52.028;8.916;2023-12-22T16:48:28;3.47;;;1.47;;
6842;SDS011;3460;52.028;8.916;2023-12-22T16:50:55;2.73;;;1.40;;
6842;SDS011;3460;52.028;8.916;2023-12-22T16:53:24;1.27;;;1.00;;
6842;SDS011;3460;52.028;8.916;2023-12-22T16:55:51;3.17;;;1.53;;
6842;SDS011;3460;52.028;8.916;2023-12-22T16:58:18;2.27;;;1.70;;
6842;SDS011;3460;52.028;8.916;2023-12-22T17:00:45;4.80;;;2.60;;
6842;SDS011;3460;52.028;8.916;2023-12-22T17:03:12;3.57;;;2.03;;
6842;SDS011;3460;52.028;8.916;2023-12-22T17:05:38;2.13;;;1.20;;
6842;SDS011;3460;52.028;8.916;2023-12-22T17:08:06;3.43;;;1.10;;
6842;SDS011;3460;52.028;8.916;2023-12-22T17:10:36;1.23;;;0.93;;
6842;SDS011;3460;52.028;8.916;2023-12-22T17:13:03;2.70;;;1.23;;
6842;SDS011;3460;52.028;8.916;2023-12-22T17:15:32;1.37;;;0.90;;
6842;SDS011;3460;52.028;8.916;2023-12-22T17:17:59;2.30;;;0.80;;
6842;SDS011;3460;52.028;8.916;2023-12-22T17:20:29;2.43;;;1.03;;
6842;SDS011;3460;52.028;8.916;2023-12-22T17:22:56;1.53;;;1.10;;
6842;SDS011;3460;52.028;8.916;2023-12-22T17:25:23;1.50;;;1.07;;
6842;SDS011;3460;52.028;8.916;2023-12-22T17:27:51;2.57;;;1.20;;
6842;SDS011;3460;52.028;8.916;2023-12-22T17:30:17;1.90;;;1.20;;
6842;SDS011;3460;52.028;8.916;2023-12-22T17:32:46;4.43;;;1.30;;
6842;SDS011;3460;52.028;8.916;2023-12-22T17:35:13;2.90;;;1.23;;
6842;SDS011;3460;52.028;8.916;2023-12-22T17:37:40;2.57;;;0.90;;
6842;SDS011;3460;52.028;8.916;2023-12-22T17:40:07;1.83;;;1.00;;
6842;SDS011;3460;52.028;8.916;2023-12-22T17:42:35;1.53;;;0.90;;
6842;SDS011;3460;52.028;8.916;2023-12-22T17:45:04;1.80;;;1.10;;
6842;SDS011;3460;52.028;8.916;2023-12-22T17:47:32;1.00;;;0.87;;
6842;SDS011;3460;52.028;8.916;2023-12-22T17:49:58;1.23;;;1.00;;
6842;SDS011;3460;52.028;8.916;2023-12-22T17:52:25;1.43;;;1.10;;
6842;SDS011;3460;52.028;8.916;2023-12-22T17:54:52;2.10;;;1.07;;
6842;SDS011;3460;52.028;8.916;2023-12-22T17:57:19;1.23;;;0.97;;
6842;SDS011;3460;52.028;8.916;2023-12-22T17:59:46;1.00;;;0.83;;
6842;SDS011;3460;52.028;8.916;2023-12-22T18:02:14;0.93;;;0.83;;
6842;SDS011;3460;52.028;8.916;2023-12-22T18:04:42;2.27;;;0.90;;
6842;SDS011;3460;52.028;8.916;2023-12-22T18:07:09;1.10;;;0.90;;
6842;SDS011;3460;52.028;8.916;2023-12-22T18:09:37;2.87;;;1.10;;
6842;SDS011;3460;52.028;8.916;2023-12-22T18:12:05;1.10;;;0.80;;
6842;SDS011;3460;52.028;8.916;2023-12-22T18:14:32;1.47;;;0.80;;
6842;SDS011;3460;52.028;8.916;2023-12-22T18:16:58;1.37;;;0.90;;
6842;SDS011;3460;52.028;8.916;2023-12-22T18:19:27;1.33;;;0.80;;
6842;SDS011;3460;52.028;8.916;2023-12-22T18:21:53;1.77;;;0.90;;
6842;SDS011;3460;52.028;8.916;2023-12-22T18:24:20;0.97;;;0.83;;
6842;SDS011;3460;52.028;8.916;2023-12-22T18:26:47;3.90;;;0.97;;
6842;SDS011;3460;52.028;8.916;2023-12-22T18:29:14;2.90;;;0.80;;
6842;SDS011;3460;52.028;8.916;2023-12-22T18:31:40;5.03;;;1.27;;
6842;SDS011;3460;52.028;8.916;2023-12-22T18:34:07;3.93;;;1.30;;
6842;SDS011;3460;52.028;8.916;2023-12-22T18:36:35;4.80;;;1.30;;
6842;SDS011;3460;52.028;8.916;2023-12-22T18:39:02;3.40;;;1.00;;
6842;SDS011;3460;52.028;8.916;2023-12-22T18:41:29;2.20;;;1.10;;
6842;SDS011;3460;52.028;8.916;2023-12-22T18:43:57;4.20;;;0.93;;
6842;SDS011;3460;52.028;8.916;2023-12-22T18:46:24;2.90;;;1.10;;
6842;SDS011;3460;52.028;8.916;2023-12-22T18:48:50;4.80;;;1.17;;
6842;SDS011;3460;52.028;8.916;2023-12-22T18:51:18;3.13;;;0.83;;
6842;SDS011;3460;52.028;8.916;2023-12-22T18:53:49;2.30;;;0.90;;
6842;SDS011;3460;52.028;8.916;2023-12-22T18:56:18;3.37;;;1.57;;
6842;SDS011;3460;52.028;8.916;2023-12-22T18:58:45;2.40;;;0.93;;